Time;durP1;ratioP1;P1;durP2;ratioP2;P2;SDS_P1;SDS_P2;PMS_P1;PMS_P2;Temp;Humidity;BMP_temperature;BMP_pressure;BME280_temperature;BME280_humidity;BME280_pressure;Samples;Min_cycle;Max_cycle;Signal;HPM_P1;HPM_P2
2021/12/05 00:19:10;;;;;;;;;14.00;6.25;;;;;4.92;76.78;99788.44;4986465;28;45538;-74
2021/12/05 00:21:42;;;;;;;;;6.00;3.00;;;;;4.86;76.14;99765.03;4986887;28;45430;-74
2021/12/05 00:24:19;;;;;;;;;9.75;6.00;;;;;4.85;77.14;99756.28;4992790;28;45455;-74
2021/12/05 00:26:55;;;;;;;;;7.00;6.00;;;;;4.88;76.48;99764.09;4993267;28;45517;-74
2021/12/05 00:29:43;;;;;;;;;7.75;5.25;;;;;5.07;76.56;99782.78;4993161;28;46366;-73
2021/12/05 00:40:33;;;;;;;;;8.50;5.00;;;;;5.13;75.63;99787.00;5013312;28;45487;-73
2021/12/05 00:43:14;;;;;;;;;13.75;9.50;;;;;5.14;76.27;99780.84;5016023;28;46026;-73
2021/12/05 00:54:48;;;;;;;;;56.00;39.25;;;;;5.45;75.71;99754.63;5017130;28;45410;-75
2021/12/05 01:02:35;;;;;;;;;21.00;13.25;;;;;5.80;75.06;99735.22;5010556;28;45479;-76
2021/12/05 01:13:44;;;;;;;;;16.75;14.25;;;;;5.98;72.79;99718.06;4984460;28;45517;-76
2021/12/05 01:15:48;;;;;;;;;59.50;40.00;;;;;6.17;73.10;99746.34;4973369;28;45557;-75
2021/12/05 01:18:16;;;;;;;;;16.25;6.25;;;;;6.20;72.68;99741.84;4978633;28;45472;-73
2021/12/05 01:20:46;;;;;;;;;8.75;4.00;;;;;5.65;73.06;99678.78;4976782;28;45449;-74
2021/12/05 01:25:50;;;;;;;;;12.75;11.50;;;;;5.77;73.98;99724.81;4990858;28;45430;-73
2021/12/05 01:28:35;;;;;;;;;6.75;4.00;;;;;5.77;73.54;99726.56;4987240;28;45317;-73
2021/12/05 01:36:17;;;;;;;;;6.25;3.25;;;;;5.52;74.32;99742.19;4988565;28;45555;-73
2021/12/05 01:49:30;;;;;;;;;3.00;2.00;;;;;5.34;76.42;99748.81;5013240;28;45612;-73
2021/12/05 02:09:03;;;;;;;;;9.00;4.25;;;;;5.22;77.88;99748.28;4982950;28;45664;-73
2021/12/05 02:40:33;;;;;;;;;1.50;1.00;;;;;5.29;77.27;99719.22;5014743;28;45618;-73
2021/12/05 02:43:15;;;;;;;;;6.75;2.75;;;;;5.29;77.29;99714.00;5006615;28;45441;-73
2021/12/05 02:45:45;;;;;;;;;5.25;3.00;;;;;5.26;77.86;99704.44;5008175;28;45454;-73
2021/12/05 02:48:12;;;;;;;;;3.50;2.00;;;;;5.17;78.54;99694.22;5015457;28;45594;-74
2021/12/05 02:50:39;;;;;;;;;2.00;2.00;;;;;5.30;78.76;99713.97;5015776;28;45282;-74
2021/12/05 02:53:21;;;;;;;;;2.75;1.00;;;;;5.33;77.58;99715.63;5021436;28;45376;-73
2021/12/05 02:55:50;;;;;;;;;1.00;1.00;;;;;5.04;77.25;99672.75;5022392;28;45542;-74
2021/12/05 03:01:22;;;;;;;;;3.50;2.25;;;;;5.30;78.45;99711.34;5009354;28;45817;-73
2021/12/05 03:03:50;;;;;;;;;6.00;2.00;;;;;5.36;78.35;99716.41;5010196;28;45560;-74
2021/12/05 03:06:23;;;;;;;;;2.75;2.00;;;;;5.32;77.82;99711.28;5014747;28;45387;-73
2021/12/05 03:08:56;;;;;;;;;5.50;2.50;;;;;5.34;78.24;99699.84;5014729;28;46166;-73
2021/12/05 03:11:23;;;;;;;;;2.75;1.00;;;;;5.23;78.24;99681.81;5014746;28;45217;-73
2021/12/05 03:13:48;;;;;;;;;3.00;2.00;;;;;5.36;78.42;99694.56;5002615;28;45499;-73
2021/12/05 03:16:17;;;;;;;;;2.00;2.00;;;;;5.31;78.24;99692.06;5012599;28;45402;-73
2021/12/05 03:18:44;;;;;;;;;2.00;2.00;;;;;5.36;77.99;99694.56;5008675;28;48118;-73
2021/12/05 03:21:10;;;;;;;;;3.00;2.00;;;;;5.34;78.54;99680.63;5008664;28;45301;-73
2021/12/05 03:23:41;;;;;;;;;2.25;2.25;;;;;5.37;78.48;99681.38;5013303;28;45420;-73
2021/12/05 03:26:12;;;;;;;;;6.50;3.00;;;;;5.37;77.31;99675.28;5010872;28;45449;-73
2021/12/05 03:28:38;;;;;;;;;3.00;3.00;;;;;5.38;78.95;99683.13;5010544;28;45546;-73
2021/12/05 03:31:06;;;;;;;;;2.00;2.00;;;;;5.26;78.23;99653.75;5011550;28;45619;-73
2021/12/05 03:33:32;;;;;;;;;6.00;3.00;;;;;5.40;78.88;99683.06;5014796;28;45592;-73
2021/12/05 03:35:58;;;;;;;;;2.50;2.00;;;;;5.35;77.98;99677.94;5014391;28;45459;-73
2021/12/05 03:38:24;;;;;;;;;4.75;2.00;;;;;5.30;78.16;99671.97;5000859;28;45552;-73
2021/12/05 03:40:49;;;;;;;;;3.00;3.00;;;;;5.24;78.55;99667.78;5015267;28;45396;-73
2021/12/05 03:43:18;;;;;;;;;2.75;1.25;;;;;5.36;78.56;99684.06;5006787;28;45318;-73
2021/12/05 03:45:46;;;;;;;;;3.00;3.00;;;;;5.37;79.31;99696.25;5014422;28;45316;-73
2021/12/05 03:48:14;;;;;;;;;2.25;2.00;;;;;5.38;77.77;99690.09;5014512;28;46582;-73
2021/12/05 03:50:41;;;;;;;;;2.00;2.00;;;;;5.40;78.52;99696.16;5001238;28;45765;-73
2021/12/05 03:53:08;;;;;;;;;6.25;2.75;;;;;5.29;77.92;99665.00;5013912;28;45517;-73
2021/12/05 03:55:36;;;;;;;;;1.75;1.00;;;;;5.47;79.15;99695.97;5014730;28;45533;-73
2021/12/05 03:58:01;;;;;;;;;8.00;3.00;;;;;5.44;77.69;99688.19;5009645;28;47809;-73
2021/12/05 04:00:30;;;;;;;;;2.50;2.00;;;;;5.45;79.18;99694.28;5009274;28;45603;-73
2021/12/05 04:03:00;;;;;;;;;1.75;1.00;;;;;5.40;77.72;99688.31;5000869;28;45501;-73
2021/12/05 04:05:26;;;;;;;;;3.00;1.00;;;;;5.42;77.83;99679.47;5014315;28;45646;-73
2021/12/05 04:07:52;;;;;;;;;2.75;1.75;;;;;5.25;78.32;99655.50;5001728;28;45494;-73
2021/12/05 04:10:18;;;;;;;;;3.00;1.00;;;;;5.46;78.24;99680.25;5004394;28;45465;-73
2021/12/05 04:12:46;;;;;;;;;1.75;1.75;;;;;5.46;78.71;99686.34;5006311;28;45711;-73
2021/12/05 04:15:12;;;;;;;;;1.25;1.25;;;;;5.40;77.93;99677.81;5014249;28;45485;-73
2021/12/05 04:17:39;;;;;;;;;1.50;1.00;;;;;5.49;78.74;99689.78;5013448;28;45720;-73
2021/12/05 04:20:07;;;;;;;;;1.00;1.00;;;;;5.50;78.18;99681.88;5013479;28;45543;-73
2021/12/05 04:22:32;;;;;;;;;0.50;0.00;;;;;5.52;77.74;99690.56;5014054;28;45385;-73
2021/12/05 04:25:01;;;;;;;;;3.75;0.00;;;;;5.50;78.21;99683.63;5013396;28;45844;-73
2021/12/05 04:27:27;;;;;;;;;1.75;1.00;;;;;5.53;78.67;99683.53;5011415;28;45565;-73
2021/12/05 04:29:53;;;;;;;;;2.75;0.75;;;;;5.54;78.76;99685.28;5009003;28;45886;-73
2021/12/05 04:32:18;;;;;;;;;0.50;0.50;;;;;5.52;78.43;99695.78;5014292;28;45316;-73
2021/12/05 04:34:44;;;;;;;;;2.00;0.50;;;;;5.36;78.54;99663.94;5014400;28;45352;-73
2021/12/05 04:37:11;;;;;;;;;13.75;12.75;;;;;5.38;77.69;99672.63;5007415;28;45540;-73
2021/12/05 04:39:38;;;;;;;;;12.75;11.00;;;;;5.50;78.58;99700.25;5005536;28;45715;-73
2021/12/05 04:42:04;;;;;;;;;0.00;0.00;;;;;5.44;78.46;99693.44;5011524;28;45504;-73
2021/12/05 04:44:30;;;;;;;;;0.25;0.00;;;;;5.31;78.24;99673.69;4998206;28;45470;-73
2021/12/05 04:46:57;;;;;;;;;1.00;1.00;;;;;5.52;78.93;99701.03;5014115;28;45256;-73
2021/12/05 04:49:23;;;;;;;;;0.25;0.25;;;;;5.28;78.12;99671.16;5013471;28;45844;-73
2021/12/05 04:51:49;;;;;;;;;2.00;0.00;;;;;5.44;78.31;99703.03;5013292;28;45359;-73
2021/12/05 04:54:19;;;;;;;;;4.25;1.00;;;;;5.42;78.49;99700.47;5013493;28;45692;-73
2021/12/05 04:56:48;;;;;;;;;2.75;2.00;;;;;5.36;78.14;99698.03;5010809;28;48324;-73
2021/12/05 04:59:14;;;;;;;;;0.00;0.00;;;;;5.31;78.06;99685.94;5012571;28;45527;-73
2021/12/05 05:01:51;;;;;;;;;2.00;2.00;;;;;5.39;77.46;99704.97;5014188;28;45335;-73
2021/12/05 05:04:26;;;;;;;;;1.00;1.00;;;;;5.42;78.31;99704.88;5013806;28;45462;-73
2021/12/05 05:07:01;;;;;;;;;0.75;0.75;;;;;5.40;77.97;99712.78;5013064;28;46031;-74
2021/12/05 05:09:26;;;;;;;;;0.25;0.25;;;;;5.35;77.23;99712.03;5013650;28;45406;-73
2021/12/05 05:11:52;;;;;;;;;0.25;0.00;;;;;5.27;78.03;99700.06;5013194;28;45500;-72
2021/12/05 05:14:17;;;;;;;;;1.00;1.00;;;;;5.36;77.68;99713.78;5019842;28;45443;-72
2021/12/05 05:16:44;;;;;;;;;1.00;1.00;;;;;4.81;78.25;99636.69;5023220;28;47247;-72
2021/12/05 05:19:11;;;;;;;;;1.00;0.00;;;;;5.29;77.91;99720.09;5022099;28;45384;-72
2021/12/05 05:30:15;;;;;;;;;1.00;1.00;;;;;5.29;78.20;99720.09;5019454;28;45435;-72
2021/12/05 05:41:03;;;;;;;;;2.00;1.00;;;;;5.23;77.88;99715.91;5014389;28;45396;-72
2021/12/05 05:50:34;;;;;;;;;1.00;1.00;;;;;5.26;78.25;99707.06;5004190;28;45530;-72
2021/12/05 05:53:00;;;;;;;;;0.75;0.75;;;;;5.17;78.43;99689.81;5017186;28;45492;-72
2021/12/05 05:55:25;;;;;;;;;1.25;0.00;;;;;5.22;78.37;99692.31;5016355;28;45532;-72
2021/12/05 06:00:35;;;;;;;;;0.00;0.00;;;;;5.30;77.69;99707.84;5016247;28;45525;-72
2021/12/05 06:03:22;;;;;;;;;0.25;0.25;;;;;4.62;77.68;99611.88;5015968;28;45374;-72
2021/12/05 06:05:52;;;;;;;;;0.00;0.00;;;;;4.99;77.79;99674.63;5002245;28;45349;-72
2021/12/05 06:08:21;;;;;;;;;0.00;0.00;;;;;5.17;78.15;99717.81;5014646;28;46321;-72
2021/12/05 06:10:47;;;;;;;;;1.00;1.00;;;;;5.03;78.02;99702.50;5015425;28;45611;-72
2021/12/05 06:13:13;;;;;;;;;0.00;0.00;;;;;5.10;78.04;99722.38;5021462;28;45510;-72
2021/12/05 06:15:38;;;;;;;;;1.50;1.00;;;;;5.05;78.31;99718.16;5015719;28;45483;-72
2021/12/05 06:18:04;;;;;;;;;0.00;0.00;;;;;4.70;78.27;99664.94;5015846;28;45942;-72
2021/12/05 06:20:31;;;;;;;;;0.00;0.00;;;;;5.10;77.64;99735.50;5016169;28;45335;-72
2021/12/05 06:22:57;;;;;;;;;4.25;0.50;;;;;5.00;78.01;99726.19;5016808;28;45622;-72
2021/12/05 06:25:26;;;;;;;;;0.00;0.00;;;;;5.00;78.16;99726.19;5015871;28;45332;-72
2021/12/05 06:27:55;;;;;;;;;1.00;1.00;;;;;5.04;77.80;99729.56;5014638;28;45864;-72
2021/12/05 06:38:41;;;;;;;;;0.00;0.00;;;;;5.00;78.65;99737.53;5015746;28;45780;-72
2021/12/05 06:46:25;;;;;;;;;1.50;1.50;;;;;5.05;78.39;99749.63;5014906;28;45685;-72
2021/12/05 06:48:51;;;;;;;;;1.00;1.00;;;;;5.05;77.93;99750.50;5014967;28;45616;-72
2021/12/05 06:51:27;;;;;;;;;1.00;1.00;;;;;4.65;77.88;99682.56;5015348;28;45259;-72
2021/12/05 06:53:55;;;;;;;;;2.00;1.00;;;;;5.01;78.34;99733.13;5015492;28;45355;-72
2021/12/05 06:56:21;;;;;;;;;2.00;2.00;;;;;5.09;77.97;99754.78;5015271;28;45404;-72
2021/12/05 06:58:48;;;;;;;;;1.00;1.00;;;;;5.06;77.97;99748.72;5015977;28;45360;-72
2021/12/05 07:01:14;;;;;;;;;3.75;2.25;;;;;5.13;78.12;99755.53;5015094;28;45325;-72
2021/12/05 07:03:43;;;;;;;;;1.00;1.00;;;;;5.17;77.68;99759.78;5014537;28;45462;-72
2021/12/05 07:08:38;;;;;;;;;2.00;1.50;;;;;5.23;77.99;99772.72;5015258;28;45158;-71
2021/12/05 07:14:14;;;;;;;;;6.25;5.00;;;;;5.32;77.86;99764.59;4988840;28;45545;-72
2021/12/05 07:17:01;;;;;;;;;2.00;2.00;;;;;5.19;77.93;99745.72;4974530;28;45684;-72
2021/12/05 07:22:02;;;;;;;;;2.00;2.00;;;;;5.36;77.73;99768.03;4987721;28;45582;-72
2021/12/05 07:40:29;;;;;;;;;6.00;6.00;;;;;5.48;78.28;99780.78;4983805;28;45496;-72
2021/12/05 07:42:55;;;;;;;;;11.25;5.00;;;;;5.50;78.73;99778.09;4968727;28;45442;-72
2021/12/05 07:45:28;;;;;;;;;10.25;6.50;;;;;5.41;78.47;99772.25;4978548;28;45644;-72
2021/12/05 07:47:55;;;;;;;;;9.50;7.25;;;;;5.51;78.84;99782.47;4973279;28;45602;-72
2021/12/05 07:50:34;;;;;;;;;6.75;6.75;;;;;5.51;78.73;99793.81;4998098;28;45432;-72
2021/12/05 07:53:06;;;;;;;;;6.00;6.00;;;;;5.18;78.08;99732.69;5009961;28;45333;-72
2021/12/05 07:55:39;;;;;;;;;8.00;7.00;;;;;5.35;78.35;99751.38;5014332;28;45522;-72
2021/12/05 07:58:27;;;;;;;;;6.25;4.00;;;;;5.53;78.28;99783.25;5013884;28;45639;-72
2021/12/05 08:14:33;;;;;;;;;20.50;18.00;;;;;5.50;77.94;99781.63;5014176;28;45269;-72
2021/12/05 08:17:00;;;;;;;;;25.50;23.00;;;;;5.59;77.43;99793.56;5010686;28;45456;-72
2021/12/05 08:19:25;;;;;;;;;10.25;8.00;;;;;5.64;77.69;99796.94;5014061;28;45408;-72
2021/12/05 08:21:55;;;;;;;;;13.00;8.75;;;;;5.72;78.43;99801.97;5013787;28;45390;-72
2021/12/05 08:24:25;;;;;;;;;17.00;12.25;;;;;5.70;78.27;99799.38;5003334;28;45375;-72
2021/12/05 08:26:52;;;;;;;;;7.25;4.25;;;;;5.71;78.08;99801.13;5012777;28;45516;-72
2021/12/05 08:29:25;;;;;;;;;14.25;6.00;;;;;5.66;78.23;99795.13;5014236;28;45623;-72
2021/12/05 08:34:43;;;;;;;;;8.00;5.25;;;;;5.65;78.54;99801.31;5019342;28;45564;-72
2021/12/05 10:01:56;;;;;;;;;8.00;7.00;;;;;6.14;79.29;99902.31;4953680;28;45414;-73
2021/12/05 10:18:53;;;;;;;;;4.00;2.50;;;;;10.08;67.26;99910.50;4921475;28;45397;-73
2021/12/05 10:37:23;;;;;;;;;3.25;3.25;;;;;8.23;72.68;99922.50;4988750;28;45485;-71
2021/12/05 10:40:09;;;;;;;;;3.00;3.00;;;;;8.32;73.23;99945.03;4989369;28;45542;-73
2021/12/05 10:42:44;;;;;;;;;5.25;4.75;;;;;8.13;72.85;99943.06;5008020;28;45364;-74
2021/12/05 10:45:18;;;;;;;;;6.00;5.50;;;;;8.13;73.11;99944.84;5014219;28;45523;-73
2021/12/05 10:47:47;;;;;;;;;4.50;4.25;;;;;8.04;72.90;99950.47;5015654;28;45217;-75
2021/12/05 10:50:34;;;;;;;;;4.00;3.00;;;;;7.97;73.92;99952.44;5012861;28;45345;-73
2021/12/05 10:53:20;;;;;;;;;5.00;3.75;;;;;7.93;74.36;99953.47;5015250;28;45390;-72
2021/12/05 10:55:55;;;;;;;;;8.50;5.00;;;;;7.64;74.55;99913.22;5001920;28;45388;-71
2021/12/05 10:58:23;;;;;;;;;8.25;6.75;;;;;7.86;74.96;99959.91;5014448;28;45902;-71
2021/12/05 11:00:48;;;;;;;;;5.00;5.00;;;;;7.69;73.67;99937.63;5011460;28;45463;-72
2021/12/05 11:03:19;;;;;;;;;3.50;3.50;;;;;7.85;75.33;99966.94;5005025;28;46058;-71
2021/12/05 11:05:45;;;;;;;;;6.50;4.75;;;;;7.83;75.52;99971.41;5014719;28;45447;-72
2021/12/05 11:08:50;;;;;;;;;9.00;2.75;;;;;7.81;74.26;99975.00;5015377;28;45514;-72
2021/12/05 11:11:16;;;;;;;;;5.25;4.00;;;;;7.77;74.28;99982.16;4954591;28;45434;-72
2021/12/05 11:13:44;;;;;;;;;7.00;4.00;;;;;7.72;74.74;99982.28;4954011;28;46295;-72
2021/12/05 11:16:51;;;;;;;;;6.00;6.00;;;;;7.68;75.21;99974.56;4953155;28;45460;-72
2021/12/05 11:19:18;;;;;;;;;9.75;9.75;;;;;7.67;75.30;99984.22;4943867;28;45981;-72
2021/12/05 11:21:47;;;;;;;;;4.75;4.75;;;;;7.73;75.74;99986.66;4937213;28;47998;-72
2021/12/05 11:24:29;;;;;;;;;7.25;4.25;;;;;7.77;75.70;99984.78;4950990;28;45536;-72
2021/12/05 11:27:02;;;;;;;;;8.50;7.00;;;;;7.80;75.26;99984.69;4951583;28;45519;-72
2021/12/05 11:29:42;;;;;;;;;10.75;8.00;;;;;7.97;74.62;99997.22;4947608;28;45595;-72
2021/12/05 11:32:10;;;;;;;;;3.50;3.50;;;;;7.95;74.61;99994.66;4952987;28;45521;-71
2021/12/05 11:34:36;;;;;;;;;4.00;4.00;;;;;7.63;74.43;99945.75;4952821;28;45401;-72
2021/12/05 11:37:01;;;;;;;;;4.50;3.25;;;;;7.69;74.59;99945.53;4948870;28;45690;-72
2021/12/05 11:39:27;;;;;;;;;5.00;5.00;;;;;8.03;74.68;99981.25;4953379;28;45429;-72
2021/12/05 11:41:52;;;;;;;;;4.50;4.50;;;;;8.28;74.31;100009.34;4953463;28;45514;-72
2021/12/05 11:44:21;;;;;;;;;4.50;4.00;;;;;8.27;73.74;100018.16;4955979;28;46192;-73
2021/12/05 11:46:47;;;;;;;;;7.50;5.50;;;;;8.28;73.94;100018.09;5014807;28;45422;-73
2021/12/05 11:49:20;;;;;;;;;10.25;7.00;;;;;8.28;73.61;100033.91;5012861;28;45702;-73
2021/12/05 11:51:56;;;;;;;;;51.75;38.25;;;;;8.28;74.21;100025.16;5014178;28;45354;-73
2021/12/05 11:54:23;;;;;;;;;8.00;6.00;;;;;8.31;74.38;100035.59;5013869;28;46007;-72
2021/12/05 11:56:58;;;;;;;;;8.00;6.25;;;;;8.32;74.13;100032.03;5014220;28;45486;-73
2021/12/05 11:59:35;;;;;;;;;10.50;6.00;;;;;8.31;73.83;100043.50;5014340;28;45339;-72
2021/12/05 12:02:44;;;;;;;;;8.00;5.00;;;;;8.33;74.86;100031.13;4995460;28;45409;-73
2021/12/05 12:05:25;;;;;;;;;9.75;6.00;;;;;8.38;73.48;100045.91;4952943;28;46249;-73
2021/12/05 12:08:07;;;;;;;;;7.00;7.00;;;;;8.34;73.36;100022.28;4936021;28;45273;-74
2021/12/05 12:10:48;;;;;;;;;7.00;7.00;;;;;8.35;73.64;100014.34;4949115;28;45471;-73
2021/12/05 12:13:18;;;;;;;;;7.00;6.75;;;;;8.31;72.22;100009.22;4952943;28;45544;-73
2021/12/05 12:15:46;;;;;;;;;5.00;5.00;;;;;8.38;72.38;100018.59;4953152;28;46118;-72
2021/12/05 12:18:26;;;;;;;;;6.50;6.50;;;;;8.47;72.11;100038.53;4952514;28;45589;-72
2021/12/05 12:20:52;;;;;;;;;5.00;5.00;;;;;8.45;73.19;100043.03;4952634;28;45814;-72
2021/12/05 12:23:20;;;;;;;;;7.75;7.50;;;;;8.40;71.54;100048.47;4952731;28;45507;-73
2021/12/05 12:25:49;;;;;;;;;9.25;5.00;;;;;8.19;72.67;100027.19;4954526;28;45429;-72
2021/12/05 12:28:16;;;;;;;;;9.50;8.00;;;;;8.16;72.95;100024.66;4956070;28;45686;-72
2021/12/05 12:30:48;;;;;;;;;8.50;4.00;;;;;8.20;73.70;100039.44;4956335;28;45429;-72
2021/12/05 12:33:17;;;;;;;;;5.75;5.00;;;;;8.03;72.63;100020.75;4955451;28;45606;-72
2021/12/05 12:35:46;;;;;;;;;9.75;8.25;;;;;8.13;73.27;100045.88;4970025;28;46172;-72
2021/12/05 12:38:19;;;;;;;;;10.00;8.25;;;;;8.04;73.05;100040.06;5016898;28;45521;-72
2021/12/05 12:40:49;;;;;;;;;13.00;8.75;;;;;8.04;73.10;100050.59;5018092;28;45355;-72
2021/12/05 12:43:42;;;;;;;;;8.75;8.00;;;;;8.12;73.85;100067.03;5017278;28;45439;-73
2021/12/05 12:46:17;;;;;;;;;7.25;7.25;;;;;8.01;73.78;100055.97;5017062;28;45745;-72
2021/12/05 12:48:43;;;;;;;;;11.75;11.00;;;;;7.84;73.70;100035.47;5025758;28;46009;-72
2021/12/05 12:51:34;;;;;;;;;14.00;10.25;;;;;8.11;73.84;100089.84;5017222;28;45414;-73
2021/12/05 12:54:08;;;;;;;;;13.25;10.75;;;;;8.08;74.43;100068.88;5017591;28;45455;-73
2021/12/05 12:56:34;;;;;;;;;17.75;10.00;;;;;8.05;73.84;100068.13;5001742;28;46385;-73
2021/12/05 12:59:06;;;;;;;;;15.00;10.00;;;;;7.98;73.38;100056.94;5017887;28;45368;-73
2021/12/05 13:09:59;;;;;;;;;13.25;10.50;;;;;8.05;74.10;100092.69;5016621;28;46082;-73
2021/12/05 13:10:09;;;;;;;;;15.50;14.00;;;;;8.00;73.44;100099.94;5016422;28;45401;-73
2021/12/05 13:12:48;;;;;;;;;10.75;9.50;;;;;7.97;73.85;100103.53;5016717;28;45398;-73
2021/12/05 13:15:22;;;;;;;;;12.00;12.00;;;;;7.94;73.78;100111.53;5027789;28;45480;-72
2021/12/05 13:17:54;;;;;;;;;10.25;10.00;;;;;7.89;73.82;100113.44;5014231;28;45634;-72
2021/12/05 13:20:25;;;;;;;;;16.00;14.25;;;;;7.90;73.96;100114.31;5010403;28;45508;-72
2021/12/05 13:22:59;;;;;;;;;13.00;12.00;;;;;7.92;74.16;100118.63;5016156;28;45610;-71
2021/12/05 13:25:25;;;;;;;;;16.25;11.00;;;;;7.91;73.73;100114.25;5013378;28;45459;-71
2021/12/05 13:27:51;;;;;;;;;14.25;9.00;;;;;7.78;73.20;100106.81;5016932;28;46113;-71
2021/12/05 13:30:34;;;;;;;;;9.75;8.25;;;;;7.90;73.68;100122.22;5016426;28;45451;-71
2021/12/05 13:33:35;;;;;;;;;9.50;9.50;;;;;7.93;73.85;100135.28;5016596;28;45577;-72
2021/12/05 13:36:28;;;;;;;;;13.75;11.25;;;;;7.95;74.08;100136.94;4925844;28;45649;-72
2021/12/05 13:38:53;;;;;;;;;11.75;11.00;;;;;7.97;73.33;100142.16;4922434;28;46334;-73
2021/12/05 13:41:19;;;;;;;;;10.00;9.75;;;;;7.90;73.93;100123.06;4936226;28;45327;-73
2021/12/05 13:44:01;;;;;;;;;15.25;13.75;;;;;7.97;73.70;100129.88;4936535;28;45276;-73
2021/12/05 13:46:29;;;;;;;;;14.25;12.00;;;;;8.12;73.27;100143.44;4935666;28;45475;-73
2021/12/05 13:48:55;;;;;;;;;15.50;11.50;;;;;8.15;72.98;100148.63;4928593;28;48387;-73
2021/12/05 13:51:26;;;;;;;;;19.00;17.00;;;;;8.16;73.06;100151.19;4926698;28;45510;-72
2021/12/05 13:53:52;;;;;;;;;16.25;13.25;;;;;8.06;73.05;100136.59;4919992;28;45452;-72
2021/12/05 13:56:25;;;;;;;;;11.25;10.75;;;;;8.08;73.45;100150.56;4935253;28;45498;-71
2021/12/05 13:58:56;;;;;;;;;19.25;15.50;;;;;8.00;73.65;100152.63;4936623;28;46391;-71
2021/12/05 14:01:29;;;;;;;;;20.25;17.50;;;;;8.01;73.49;100162.25;4935022;28;45592;-71
2021/12/05 14:04:23;;;;;;;;;18.25;17.00;;;;;7.98;73.94;100162.34;4912237;28;45505;-71
2021/12/05 14:07:04;;;;;;;;;18.75;16.25;;;;;7.96;74.57;100166.78;4930641;28;45336;-72
2021/12/05 14:09:42;;;;;;;;;17.25;17.00;;;;;7.91;74.33;100161.69;4958054;28;46320;-72
2021/12/05 14:12:10;;;;;;;;;19.75;18.50;;;;;7.87;74.77;100165.31;5014535;28;45909;-72
2021/12/05 14:14:41;;;;;;;;;18.50;14.50;;;;;7.85;74.68;100166.28;5015890;28;45319;-72
2021/12/05 14:17:13;;;;;;;;;16.25;13.50;;;;;7.77;74.67;100157.78;5017017;28;45499;-72
2021/12/05 14:19:42;;;;;;;;;15.50;13.50;;;;;7.80;74.41;100173.47;5016743;28;45545;-72
2021/12/05 14:22:11;;;;;;;;;14.00;11.50;;;;;7.69;74.66;100166.78;5020270;28;45375;-72
2021/12/05 14:24:42;;;;;;;;;12.75;12.50;;;;;7.66;74.08;100161.59;5026239;28;45477;-72
2021/12/05 14:27:12;;;;;;;;;12.75;10.50;;;;;7.77;74.85;100189.38;5035761;28;45483;-72
2021/12/05 14:29:40;;;;;;;;;14.00;10.00;;;;;7.71;74.04;100187.81;5015956;28;45610;-72
2021/12/05 14:32:20;;;;;;;;;15.00;9.50;;;;;7.73;74.74;100191.22;5011634;28;45502;-72
2021/12/05 14:34:46;;;;;;;;;14.00;10.00;;;;;7.59;74.63;100180.25;5016274;28;45285;-72
2021/12/05 14:37:16;;;;;;;;;9.75;9.00;;;;;7.51;73.03;100189.28;5013788;28;45661;-72
2021/12/05 14:39:45;;;;;;;;;10.25;9.25;;;;;7.65;74.54;100216.97;5015348;28;47032;-72
2021/12/05 14:42:17;;;;;;;;;13.50;8.00;;;;;7.56;74.63;100204.06;5015336;28;45762;-72
2021/12/05 14:44:46;;;;;;;;;8.50;8.50;;;;;7.50;74.99;100202.50;5015548;28;45388;-72
2021/12/05 14:47:16;;;;;;;;;11.25;9.00;;;;;7.55;74.97;100213.72;5015513;28;45313;-72
2021/12/05 14:49:46;;;;;;;;;10.00;7.50;;;;;7.51;74.94;100220.88;5012503;28;46409;-72
2021/12/05 14:52:16;;;;;;;;;10.25;8.25;;;;;7.32;74.79;100190.72;5009993;28;45801;-72
2021/12/05 14:54:43;;;;;;;;;13.00;10.00;;;;;7.45;75.07;100234.22;5012970;28;45438;-72
2021/12/05 14:57:15;;;;;;;;;11.50;9.00;;;;;7.44;74.91;100236.88;5015758;28;45502;-72
2021/12/05 14:59:43;;;;;;;;;11.25;10.00;;;;;7.35;74.85;100230.09;5010142;28;46562;-72
2021/12/05 15:02:09;;;;;;;;;11.25;10.00;;;;;7.39;75.09;100241.44;5013228;28;45407;-72
2021/12/05 15:04:38;;;;;;;;;12.25;10.00;;;;;7.38;75.60;100232.69;5015613;28;45414;-72
2021/12/05 15:07:04;;;;;;;;;9.25;9.25;;;;;7.34;75.26;100231.03;5014418;28;45514;-72
2021/12/05 15:09:34;;;;;;;;;10.75;8.00;;;;;7.36;74.69;100236.25;5013785;28;46048;-72
2021/12/05 15:12:14;;;;;;;;;9.75;9.75;;;;;7.38;75.98;100247.59;5014421;28;45487;-72
2021/12/05 15:14:43;;;;;;;;;20.00;14.00;;;;;7.29;75.10;100235.56;4996087;28;45587;-72
2021/12/05 15:17:22;;;;;;;;;27.00;22.00;;;;;7.40;74.97;100251.06;5012894;28;45385;-72
2021/12/05 15:20:00;;;;;;;;;18.50;15.25;;;;;7.37;74.83;100254.63;4994505;28;47228;-72
2021/12/05 15:22:27;;;;;;;;;20.25;15.50;;;;;7.37;75.29;100253.78;5015365;28;45492;-72
2021/12/05 15:25:05;;;;;;;;;22.00;19.25;;;;;7.34;75.03;100245.97;5014879;28;45445;-72
2021/12/05 15:27:32;;;;;;;;;20.75;16.00;;;;;7.27;75.72;100240.03;5014518;28;45461;-72
2021/12/05 15:30:06;;;;;;;;;18.75;14.75;;;;;7.38;74.75;100261.66;5009893;28;47669;-72
2021/12/05 15:32:33;;;;;;;;;19.25;16.25;;;;;7.39;75.41;100260.72;5010336;28;45582;-71
2021/12/05 15:35:02;;;;;;;;;19.00;14.25;;;;;7.40;75.31;100266.84;5001095;28;45533;-71
2021/12/05 15:37:28;;;;;;;;;22.25;17.00;;;;;7.37;75.88;100273.06;5005137;28;45293;-72
2021/12/05 15:39:56;;;;;;;;;15.50;15.50;;;;;7.17;75.06;100242.03;5013125;28;45554;-72
2021/12/05 15:42:31;;;;;;;;;11.75;11.75;;;;;7.23;75.03;100273.44;5014141;28;45486;-72
2021/12/05 15:45:00;;;;;;;;;15.50;12.50;;;;;7.35;76.27;100295.91;5014485;28;45402;-72
2021/12/05 15:47:28;;;;;;;;;14.00;14.00;;;;;7.34;76.74;100294.22;5014577;28;45432;-73
2021/12/05 15:50:07;;;;;;;;;12.75;9.50;;;;;7.36;76.80;100299.44;5015051;28;45542;-72
2021/12/05 15:52:41;;;;;;;;;11.75;7.75;;;;;7.36;74.75;100295.03;5014341;28;45449;-72
2021/12/05 15:55:16;;;;;;;;;18.25;14.50;;;;;7.39;75.59;100294.94;5007939;28;45511;-72
2021/12/05 15:57:46;;;;;;;;;19.50;13.00;;;;;7.41;75.98;100297.53;5008302;28;45552;-72
2021/12/05 16:00:21;;;;;;;;;10.75;10.50;;;;;7.43;74.70;100303.63;5013656;28;45497;-72
2021/12/05 16:02:47;;;;;;;;;15.25;12.75;;;;;6.97;75.59;100216.31;5014292;28;45556;-72
2021/12/05 16:05:15;;;;;;;;;15.25;13.75;;;;;7.40;74.83;100290.53;5014903;28;45464;-72
2021/12/05 16:07:42;;;;;;;;;17.50;12.75;;;;;7.47;75.29;100297.34;5013528;28;45751;-73
2021/12/05 16:10:18;;;;;;;;;18.25;15.00;;;;;7.49;75.21;100303.44;5013624;28;45343;-73
2021/12/05 16:12:46;;;;;;;;;17.75;16.00;;;;;7.56;75.76;100323.44;5014240;28;45442;-73
2021/12/05 16:15:12;;;;;;;;;26.25;23.75;;;;;7.49;72.86;100306.94;5008452;28;45662;-71
2021/12/05 16:17:40;;;;;;;;;25.50;24.25;;;;;7.57;74.74;100319.03;5013953;28;45423;-71
2021/12/05 16:20:14;;;;;;;;;35.50;29.00;;;;;7.58;73.02;100318.13;5014262;28;46304;-71
2021/12/05 16:23:05;;;;;;;;;20.00;18.75;;;;;7.58;73.55;100318.13;5010785;28;45284;-71
2021/12/05 16:25:32;;;;;;;;;18.00;15.25;;;;;7.59;74.32;100333.00;5013604;28;45565;-71
2021/12/05 16:28:02;;;;;;;;;13.00;8.50;;;;;7.60;74.71;100337.38;5014184;28;45652;-71
2021/12/05 16:30:40;;;;;;;;;16.75;10.50;;;;;7.42;74.79;100301.91;5013790;28;47248;-72
2021/12/05 16:33:07;;;;;;;;;8.00;6.50;;;;;7.42;74.70;100315.91;5013870;28;45403;-71
2021/12/05 16:35:37;;;;;;;;;6.00;4.25;;;;;7.45;73.63;100326.38;5014151;28;45387;-71
2021/12/05 16:38:33;;;;;;;;;6.75;6.75;;;;;7.56;74.66;100357.69;5007342;28;45581;-71
2021/12/05 16:41:05;;;;;;;;;6.75;6.75;;;;;7.56;75.53;100360.31;5003657;28;45423;-71
2021/12/05 16:43:32;;;;;;;;;10.00;8.00;;;;;7.48;74.87;100346.50;5010516;28;45482;-71
2021/12/05 16:46:27;;;;;;;;;20.00;16.75;;;;;7.55;74.75;100362.97;5013117;28;45451;-72
2021/12/05 16:48:53;;;;;;;;;13.00;11.75;;;;;7.41;75.34;100339.66;5013681;28;45688;-72
2021/12/05 16:51:35;;;;;;;;;12.75;10.00;;;;;7.55;75.78;100368.25;5012400;28;45499;-72
2021/12/05 16:54:12;;;;;;;;;8.00;7.00;;;;;7.53;75.16;100373.56;5001890;28;45583;-72
2021/12/05 16:56:54;;;;;;;;;9.00;7.75;;;;;7.53;75.76;100370.03;5011927;28;45362;-72
2021/12/05 16:59:39;;;;;;;;;12.25;8.50;;;;;7.52;76.54;100374.44;5013223;28;45444;-72
2021/12/05 17:02:13;;;;;;;;;28.00;25.25;;;;;7.52;76.88;100379.72;5002416;28;46298;-72
2021/12/05 17:04:57;;;;;;;;;20.75;19.75;;;;;7.51;76.65;100383.25;5013549;28;45295;-72
2021/12/05 17:07:55;;;;;;;;;16.50;14.00;;;;;7.49;76.56;100385.91;5012109;28;45422;-72
2021/12/05 17:10:20;;;;;;;;;20.75;18.25;;;;;7.49;76.70;100391.19;5008894;28;45490;-71